createdAt,value
2023-02-19T00:02:04.238Z,101672.28
2023-02-19T00:04:30.667Z,101668.69
2023-02-19T00:06:57.011Z,101665.94
2023-02-19T00:09:23.423Z,101664.94
2023-02-19T00:11:49.930Z,101668.69
2023-02-19T00:14:19.424Z,101674.84
2023-02-19T00:16:46.200Z,101674.97
2023-02-19T00:19:15.850Z,101683.09
2023-02-19T00:21:42.849Z,101678.66
2023-02-19T00:24:13.333Z,101684.97
2023-02-19T00:26:41.533Z,101679.59
2023-02-19T00:29:12.235Z,101672.44
2023-02-19T00:31:38.812Z,101680.66
2023-02-19T00:34:06.371Z,101679.59
2023-02-19T00:36:36.334Z,101683.16
2023-02-19T00:39:03.994Z,101683.97
2023-02-19T00:41:30.583Z,101681.47
2023-02-19T00:44:05.200Z,101686.81
2023-02-19T00:46:37.108Z,101692.25
2023-02-19T00:49:05.644Z,101685.09
2023-02-19T00:51:34.784Z,101686.00
2023-02-19T00:54:01.577Z,101682.28
2023-02-19T00:56:28.069Z,101686.00
2023-02-19T00:58:54.735Z,101690.63
2023-02-19T01:01:21.610Z,101696.00
2023-02-19T01:03:48.776Z,101670.78
2023-02-19T01:06:17.910Z,101697.63
2023-02-19T01:08:44.995Z,101698.53
2023-02-19T01:11:12.879Z,101691.22
2023-02-19T01:13:40.201Z,101699.25
2023-02-19T01:16:24.727Z,101695.53
2023-02-19T01:18:51.836Z,101698.25
2023-02-19T01:21:21.728Z,101710.88
2023-02-19T01:23:49.307Z,101706.38
2023-02-19T01:26:18.918Z,101709.41
2023-02-19T01:28:46.008Z,101711.19
2023-02-19T01:31:15.621Z,101705.84
2023-02-19T01:33:53.219Z,101710.38
2023-02-19T01:36:19.763Z,101711.31
2023-02-19T01:38:46.784Z,101716.88
2023-02-19T01:41:15.967Z,101716.94
2023-02-19T01:44:28.649Z,101717.00
2023-02-19T01:46:57.605Z,101722.50
2023-02-19T01:49:35.020Z,101722.53
2023-02-19T01:52:32.568Z,101724.38
2023-02-19T01:55:01.299Z,101717.09
2023-02-19T01:57:31.931Z,101730.69
2023-02-19T02:00:04.170Z,101729.69
2023-02-19T02:02:30.720Z,101730.50
2023-02-19T02:05:00.126Z,101728.78
2023-02-19T02:07:45.772Z,101733.38
2023-02-19T02:10:21.587Z,101729.78
2023-02-19T02:12:49.704Z,101737.75
2023-02-19T02:15:17.016Z,101731.56
2023-02-19T02:18:29.081Z,101729.78
2023-02-19T02:20:58.349Z,101732.50
2023-02-19T02:23:55.895Z,101737.88
2023-02-19T02:26:25.587Z,101737.94
2023-02-19T02:29:00.973Z,101736.19
2023-02-19T02:31:39.273Z,101736.19
2023-02-19T02:34:17.467Z,101738.88
2023-02-19T02:36:47.635Z,101740.56
2023-02-19T02:39:17.376Z,101738.88
2023-02-19T02:41:46.247Z,101733.53
2023-02-19T02:44:12.750Z,101747.13
2023-02-19T02:46:44.899Z,101742.66
2023-02-19T02:49:22.041Z,101742.66
2023-02-19T02:51:52.444Z,101752.59
2023-02-19T02:54:42.739Z,101754.47
2023-02-19T02:57:14.701Z,101751.75
2023-02-19T02:59:42.896Z,101756.34
2023-02-19T03:02:23.747Z,101758.13
2023-02-19T03:05:38.247Z,101760.75
2023-02-19T03:08:12.269Z,101763.44
2023-02-19T03:10:54.393Z,101768.75
2023-02-19T03:13:46.968Z,101772.38
2023-02-19T03:16:41.678Z,101778.53
2023-02-19T03:19:21.581Z,101766.88
2023-02-19T03:22:01.702Z,101772.19
2023-02-19T03:24:53.701Z,101777.63
2023-02-19T03:27:21.954Z,101778.53
2023-02-19T03:29:51.960Z,101785.78
2023-02-19T03:32:40.756Z,101783.09
2023-02-19T03:35:14.625Z,101789.38
2023-02-19T03:37:58.171Z,101785.66
2023-02-19T03:40:29.464Z,101787.41
2023-02-19T03:43:10.773Z,101792.78
2023-02-19T03:45:46.459Z,101792.03
2023-02-19T03:48:34.949Z,101799.28
2023-02-19T03:51:26.201Z,101801.28
2023-02-19T03:54:02.986Z,101804.13
2023-02-19T03:56:39.064Z,101805.03
2023-02-19T03:59:21.527Z,101819.38
2023-02-19T04:01:54.002Z,101819.38
2023-02-19T04:04:54.779Z,101822.97
2023-02-19T04:07:22.679Z,101829.13
2023-02-19T04:09:51.492Z,101831.69
2023-02-19T04:12:19.166Z,101825.34
2023-02-19T04:14:52.527Z,101832.50
2023-02-19T04:17:34.123Z,101849.56
2023-02-19T04:20:03.971Z,101851.34
2023-02-19T04:22:31.092Z,101849.59
2023-02-19T04:24:57.849Z,101853.09
2023-02-19T04:27:24.288Z,101865.78
2023-02-19T04:29:50.743Z,101866.00
2023-02-19T04:32:17.173Z,101864.25
2023-02-19T04:34:43.691Z,101869.69
2023-02-19T04:37:10.175Z,101872.34
2023-02-19T04:39:36.661Z,101885.78
2023-02-19T04:42:03.244Z,101885.88
2023-02-19T04:44:29.715Z,101889.59
2023-02-19T04:46:56.175Z,101895.06
2023-02-19T04:49:22.560Z,101895.91
2023-02-19T04:51:48.941Z,101896.94
2023-02-19T04:54:15.370Z,101901.44
2023-02-19T04:56:41.741Z,101891.69
2023-02-19T04:59:08.122Z,101897.94
2023-02-19T05:01:34.606Z,101908.63
2023-02-19T05:04:01.121Z,101909.69
2023-02-19T05:06:27.728Z,101911.53
2023-02-19T05:08:54.185Z,101912.41
2023-02-19T05:11:20.641Z,101916.91
2023-02-19T05:13:47.100Z,101920.44
2023-02-19T05:16:16.041Z,101926.66
2023-02-19T05:18:44.084Z,101929.41
2023-02-19T05:21:12.219Z,101928.59
2023-02-19T05:23:39.175Z,101926.75
2023-02-19T05:26:17.015Z,101929.44
2023-02-19T05:28:44.951Z,101940.28
2023-02-19T05:31:12.503Z,101933.97
2023-02-19T05:33:40.090Z,101938.47
2023-02-19T05:36:09.758Z,101947.41
2023-02-19T05:38:36.760Z,101948.38
2023-02-19T05:41:14.831Z,101946.63
2023-02-19T05:43:42.809Z,101943.88
2023-02-19T05:46:10.853Z,101963.66
2023-02-19T05:48:37.541Z,101965.34
2023-02-19T05:51:06.588Z,101960.00
2023-02-19T05:53:33.835Z,101960.88
2023-02-19T05:56:00.278Z,101961.78
2023-02-19T05:58:27.696Z,101973.41
2023-02-19T06:00:54.870Z,101976.97
2023-02-19T06:03:22.057Z,101981.41
2023-02-19T06:05:48.570Z,101981.41
2023-02-19T06:08:15.924Z,101984.16
2023-02-19T06:10:42.703Z,101981.50
2023-02-19T06:13:09.800Z,101985.16
2023-02-19T06:15:37.249Z,101986.06
2023-02-19T06:18:04.185Z,101985.22
2023-02-19T06:20:30.607Z,101996.03
2023-02-19T06:22:57.032Z,102003.34
2023-02-19T06:25:23.439Z,101998.91
2023-02-19T06:27:49.856Z,101999.03
2023-02-19T06:30:16.412Z,102012.50
2023-02-19T06:32:42.787Z,102012.50
2023-02-19T06:35:09.156Z,102019.81
2023-02-19T06:37:35.592Z,102016.47
2023-02-19T06:40:02.043Z,102032.63
2023-02-19T06:42:32.618Z,102041.69
2023-02-19T06:44:59.090Z,102046.34
2023-02-19T06:47:25.612Z,102056.31
2023-02-19T06:49:52.040Z,102052.72
2023-02-19T06:52:18.462Z,102056.34
2023-02-19T06:54:44.858Z,102060.06
2023-02-19T06:57:11.231Z,102068.34
2023-02-19T06:59:37.589Z,102084.44
2023-02-19T07:02:04.120Z,102087.16
2023-02-19T07:04:30.652Z,102088.22
2023-02-19T07:06:57.310Z,102099.06
2023-02-19T07:09:25.340Z,102107.22
2023-02-19T07:11:52.330Z,102109.06
2023-02-19T07:14:18.969Z,102117.13
2023-02-19T07:16:47.328Z,102123.44
2023-02-19T07:19:15.306Z,102127.13
2023-02-19T07:21:42.495Z,102128.00
2023-02-19T07:24:09.979Z,102130.84
2023-02-19T07:26:36.571Z,102128.19
2023-02-19T07:29:02.980Z,102136.22
2023-02-19T07:31:29.641Z,102136.25
2023-02-19T07:33:56.239Z,102148.91
2023-02-19T07:36:24.034Z,102159.66
2023-02-19T07:38:57.478Z,102150.78
2023-02-19T07:41:24.909Z,102154.38
2023-02-19T07:43:51.661Z,102166.03
2023-02-19T07:46:18.108Z,102164.31
2023-02-19T07:48:44.772Z,102176.88
2023-02-19T07:51:18.828Z,102185.84
2023-02-19T07:53:46.675Z,102186.53
2023-02-19T07:56:13.519Z,102192.75
2023-02-19T07:58:40.473Z,102195.31
2023-02-19T08:01:15.488Z,102188.94
2023-02-19T08:03:43.071Z,102201.50
2023-02-19T08:06:11.197Z,102212.06
2023-02-19T08:08:39.068Z,102214.38
2023-02-19T08:11:24.984Z,102222.16
2023-02-19T08:13:53.254Z,102222.84
2023-02-19T08:16:30.026Z,102230.59
2023-02-19T08:19:03.675Z,102227.03
2023-02-19T08:21:30.156Z,102217.19
2023-02-19T08:23:56.602Z,102228.00
2023-02-19T08:26:22.955Z,102236.28
2023-02-19T08:28:49.300Z,102228.22
2023-02-19T08:31:15.988Z,102235.28
2023-02-19T08:33:42.446Z,102237.28
2023-02-19T08:36:09.841Z,102244.59
2023-02-19T08:38:37.677Z,102231.34
2023-02-19T08:41:06.133Z,102230.44
2023-02-19T08:43:32.598Z,102247.41
2023-02-19T08:45:59.380Z,102258.38
2023-02-19T08:48:25.896Z,102259.84
2023-02-19T08:51:11.932Z,102272.22
2023-02-19T08:53:39.876Z,102275.66
2023-02-19T08:56:11.745Z,102280.94
2023-02-19T08:58:38.738Z,102295.69
2023-02-19T09:01:14.638Z,102304.84
2023-02-19T09:03:41.586Z,102308.78
2023-02-19T09:06:11.150Z,102309.31
2023-02-19T09:08:37.700Z,102321.88
2023-02-19T09:11:06.950Z,102328.78
2023-02-19T09:13:33.371Z,102336.47
2023-02-19T09:15:59.941Z,102338.56
2023-02-19T09:18:26.825Z,102349.00
2023-02-19T09:20:53.342Z,102351.41
2023-02-19T09:23:20.161Z,102351.66
2023-02-19T09:25:46.693Z,102357.19
2023-02-19T09:28:13.201Z,102371.44
2023-02-19T09:30:39.781Z,102368.44
2023-02-19T09:33:06.218Z,102376.66
2023-02-19T09:35:32.671Z,102375.78
2023-02-19T09:38:01.881Z,102372.19
2023-02-19T09:40:30.329Z,102379.34
2023-02-19T09:42:57.044Z,102386.44
2023-02-19T09:45:26.067Z,102394.44
2023-02-19T09:47:57.912Z,102402.22
2023-02-19T09:50:34.200Z,102406.66
2023-02-19T09:53:04.547Z,102409.06
2023-02-19T09:55:36.664Z,102405.16
2023-02-19T09:58:15.248Z,102410.88
2023-02-19T10:00:41.838Z,102426.53
2023-02-19T10:03:20.634Z,102437.81
2023-02-19T10:05:47.908Z,102447.16
2023-02-19T10:08:19.059Z,102453.09
2023-02-19T10:10:45.638Z,102454.38
2023-02-19T10:13:19.390Z,102453.41
2023-02-19T10:15:51.696Z,102454.22
2023-02-19T10:18:24.987Z,102437.91
2023-02-19T10:20:53.206Z,102439.66
2023-02-19T10:23:20.515Z,102455.84
2023-02-19T10:25:54.373Z,102456.78
2023-02-19T10:28:23.891Z,102464.13
2023-02-19T10:30:54.045Z,102467.09
2023-02-19T10:33:21.264Z,102456.22
2023-02-19T10:35:58.680Z,102458.19
2023-02-19T10:38:31.066Z,102459.06
2023-02-19T10:41:01.777Z,102456.25
2023-02-19T10:43:33.806Z,102461.56
2023-02-19T10:46:04.764Z,102467.81
2023-02-19T10:48:36.416Z,102470.44
2023-02-19T10:51:07.192Z,102473.06
2023-02-19T10:53:46.487Z,102479.31
2023-02-19T10:56:33.979Z,102485.44
2023-02-19T10:59:18.648Z,102488.63
2023-02-19T11:02:02.415Z,102488.44
2023-02-19T11:04:34.049Z,102512.38
2023-02-19T11:07:18.707Z,102500.63
2023-02-19T11:09:49.404Z,102497.88
2023-02-19T11:12:29.651Z,102493.31
2023-02-19T11:14:56.407Z,102492.44
2023-02-19T11:17:28.379Z,102487.84
2023-02-19T11:20:04.641Z,102492.38
2023-02-19T11:22:33.864Z,102492.53
2023-02-19T11:25:15.379Z,102492.56
2023-02-19T11:28:08.328Z,102490.03
2023-02-19T11:30:41.533Z,102497.56
2023-02-19T11:33:17.206Z,102491.50
2023-02-19T11:35:44.902Z,102491.78
2023-02-19T11:38:13.505Z,102494.53
2023-02-19T11:40:54.415Z,102504.66
2023-02-19T11:43:47.347Z,102494.00
2023-02-19T11:46:43.595Z,102495.78
2023-02-19T11:49:48.007Z,102490.31
2023-02-19T11:52:35.588Z,102506.44
2023-02-19T11:55:21.935Z,102505.50
2023-02-19T11:58:04.348Z,102522.44
2023-02-19T12:00:31.879Z,102532.34
2023-02-19T12:03:05.511Z,102536.03
2023-02-19T12:05:49.699Z,102533.22
2023-02-19T12:08:53.695Z,102540.44
2023-02-19T12:11:34.302Z,102531.56
2023-02-19T12:14:09.814Z,102538.78
2023-02-19T12:16:59.625Z,102545.84
2023-02-19T12:19:51.596Z,102554.75
2023-02-19T12:22:32.408Z,102544.00
2023-02-19T12:25:23.782Z,102537.63
2023-02-19T12:27:57.966Z,102540.34
2023-02-19T12:30:37.949Z,102544.75
2023-02-19T12:33:28.760Z,102541.94
2023-02-19T12:36:12.762Z,102552.31
2023-02-19T12:38:42.052Z,102554.84
2023-02-19T12:41:34.785Z,102561.72
2023-02-19T12:44:11.068Z,102568.09
2023-02-19T12:46:42.468Z,102571.34
2023-02-19T12:49:39.276Z,102563.25
2023-02-19T12:52:19.190Z,102557.00
2023-02-19T12:54:50.088Z,102557.53
2023-02-19T12:57:22.638Z,102557.47
2023-02-19T12:59:56.118Z,102571.63
2023-02-19T13:02:30.405Z,102559.03
2023-02-19T13:04:59.674Z,102554.56
2023-02-19T13:07:44.097Z,102565.47
2023-02-19T13:10:33.847Z,102560.84
2023-02-19T13:13:07.110Z,102560.69
2023-02-19T13:15:42.197Z,102565.81
2023-02-19T13:18:18.242Z,102565.63
2023-02-19T13:20:46.582Z,102568.56
2023-02-19T13:23:50.752Z,102587.09
2023-02-19T13:27:01.411Z,102590.81
2023-02-19T13:29:46.775Z,102597.31
2023-02-19T13:32:18.838Z,102591.00
2023-02-19T13:34:48.024Z,102594.78
2023-02-19T13:37:16.644Z,102598.75
2023-02-19T13:39:49.940Z,102581.50
2023-02-19T13:42:36.366Z,102577.84
2023-02-19T13:45:05.193Z,102581.34
2023-02-19T13:47:49.088Z,102580.69
2023-02-19T13:50:28.862Z,102587.78
2023-02-19T13:52:57.164Z,102576.41
2023-02-19T13:55:46.520Z,102578.22
2023-02-19T13:58:35.528Z,102583.47
2023-02-19T14:01:07.663Z,102567.56
2023-02-19T14:03:37.115Z,102555.56
2023-02-19T14:06:08.994Z,102546.25
2023-02-19T14:08:56.137Z,102542.06
2023-02-19T14:11:41.595Z,102543.91
2023-02-19T14:14:28.638Z,102558.22
2023-02-19T14:16:57.868Z,102554.84
2023-02-19T14:19:42.363Z,102551.31
2023-02-19T14:23:03.386Z,102541.69
2023-02-19T14:25:35.549Z,102540.19
2023-02-19T14:28:17.282Z,102537.50
2023-02-19T14:30:46.199Z,102541.00
2023-02-19T14:33:16.551Z,102543.97
2023-02-19T14:35:46.143Z,102556.56
2023-02-19T14:38:24.221Z,102551.97
2023-02-19T14:40:53.029Z,102552.72
2023-02-19T14:43:22.865Z,102554.38
2023-02-19T14:46:03.956Z,102545.31
2023-02-19T14:48:45.663Z,102564.56
2023-02-19T14:51:29.202Z,102561.22
2023-02-19T14:53:57.831Z,102568.63
2023-02-19T14:56:28.352Z,102577.69
2023-02-19T14:59:21.947Z,102577.91
2023-02-19T15:02:17.228Z,102582.47
2023-02-19T15:04:43.701Z,102575.28
2023-02-19T15:07:17.269Z,102580.72
2023-02-19T15:09:48.582Z,102581.03
2023-02-19T15:12:28.735Z,102581.97
2023-02-19T15:14:59.811Z,102579.47
2023-02-19T15:17:30.042Z,102576.91
2023-02-19T15:19:58.926Z,102576.13
2023-02-19T15:22:28.235Z,102569.97
2023-02-19T15:24:55.485Z,102588.81
2023-02-19T15:27:24.624Z,102591.63
2023-02-19T15:29:53.642Z,102590.72
2023-02-19T15:32:23.208Z,102592.56
2023-02-19T15:34:58.072Z,102583.69
2023-02-19T15:37:33.607Z,102589.97
2023-02-19T15:40:05.446Z,102591.72
2023-02-19T15:42:34.864Z,102593.44
2023-02-19T15:45:23.651Z,102594.38
2023-02-19T15:48:27.338Z,102600.66
2023-02-19T15:51:09.326Z,102599.00
2023-02-19T15:53:47.563Z,102601.72
2023-02-19T15:56:30.457Z,102605.34
2023-02-19T15:58:59.433Z,102593.75
2023-02-19T16:01:37.545Z,102588.44
2023-02-19T16:04:06.603Z,102590.22
2023-02-19T16:07:01.427Z,102592.06
2023-02-19T16:09:37.069Z,102584.84
2023-02-19T16:12:19.930Z,102584.03
2023-02-19T16:14:46.517Z,102588.56
2023-02-19T16:17:22.065Z,102580.53
2023-02-19T16:19:57.649Z,102582.44
2023-02-19T16:22:26.623Z,102580.66
2023-02-19T16:24:58.578Z,102585.16
2023-02-19T16:27:37.094Z,102586.13
2023-02-19T16:30:09.865Z,102583.44
2023-02-19T16:32:36.373Z,102590.66
2023-02-19T16:35:02.758Z,102596.97
2023-02-19T16:37:40.804Z,102596.97
2023-02-19T16:40:07.416Z,102592.59
2023-02-19T16:42:56.785Z,102592.59
2023-02-19T16:45:25.450Z,102597.09
2023-02-19T16:47:52.898Z,102590.88
2023-02-19T16:50:23.386Z,102605.13
2023-02-19T16:52:53.555Z,102611.41
2023-02-19T16:55:20.131Z,102623.06
2023-02-19T16:57:46.491Z,102610.53
2023-02-19T17:00:21.573Z,102605.31
2023-02-19T17:02:51.166Z,102621.50
2023-02-19T17:05:19.689Z,102618.88
2023-02-19T17:07:46.418Z,102625.13
2023-02-19T17:10:21.046Z,102626.00
2023-02-19T17:12:47.342Z,102617.09
2023-02-19T17:15:13.776Z,102619.72
2023-02-19T17:17:40.772Z,102609.97
2023-02-19T17:20:29.384Z,102610.84
2023-02-19T17:22:56.322Z,102614.41
2023-02-19T17:25:22.929Z,102602.84
2023-02-19T17:27:49.662Z,102609.25
2023-02-19T17:30:26.775Z,102607.66
2023-02-19T17:32:53.439Z,102605.13
2023-02-19T17:35:20.356Z,102594.56
2023-02-19T17:37:46.799Z,102595.47
2023-02-19T17:40:33.184Z,102591.09
2023-02-19T17:43:00.483Z,102589.41
2023-02-19T17:45:27.017Z,102575.16
2023-02-19T17:47:53.438Z,102567.13
2023-02-19T17:50:22.644Z,102568.97
2023-02-19T17:52:49.147Z,102571.72
2023-02-19T17:55:18.407Z,102568.19
2023-02-19T17:57:45.839Z,102564.63
2023-02-19T18:00:18.000Z,102568.34
2023-02-19T18:02:44.732Z,102573.81
2023-02-19T18:05:11.833Z,102577.44
2023-02-19T18:07:38.571Z,102569.41
2023-02-19T18:10:06.534Z,102576.63
2023-02-19T18:12:33.038Z,102582.03
2023-02-19T18:14:59.575Z,102595.41
2023-02-19T18:17:26.444Z,102593.69
2023-02-19T18:19:53.391Z,102592.84
2023-02-19T18:22:20.384Z,102594.72
2023-02-19T18:24:54.094Z,102591.19
2023-02-19T18:27:20.688Z,102586.84
2023-02-19T18:29:55.415Z,102581.56
2023-02-19T18:32:23.672Z,102586.13
2023-02-19T18:34:55.640Z,102580.78
2023-02-19T18:37:23.582Z,102585.31
2023-02-19T18:39:50.379Z,102578.25
2023-02-19T18:42:16.897Z,102580.97
2023-02-19T18:44:46.796Z,102579.22
2023-02-19T18:47:13.574Z,102568.53
2023-02-19T18:49:40.085Z,102572.97
2023-02-19T18:52:06.758Z,102571.25
2023-02-19T18:54:33.364Z,102560.59
2023-02-19T18:57:03.736Z,102566.75
2023-02-19T18:59:30.960Z,102572.97
2023-02-19T19:01:57.738Z,102573.91
2023-02-19T19:04:24.205Z,102581.94
2023-02-19T19:06:50.584Z,102570.31
2023-02-19T19:09:17.005Z,102580.06
2023-02-19T19:11:44.381Z,102580.06
2023-02-19T19:14:10.815Z,102582.72
2023-02-19T19:16:37.279Z,102575.59
2023-02-19T19:19:03.689Z,102580.84
2023-02-19T19:21:30.611Z,102573.75
2023-02-19T19:23:57.066Z,102571.03
2023-02-19T19:26:23.478Z,102566.63
2023-02-19T19:28:49.883Z,102568.47
2023-02-19T19:31:18.747Z,102558.66
2023-02-19T19:33:46.774Z,102574.66
2023-02-19T19:36:14.535Z,102567.50
2023-02-19T19:38:41.306Z,102556.78
2023-02-19T19:41:07.755Z,102570.06
2023-02-19T19:43:34.171Z,102566.47
2023-02-19T19:46:00.842Z,102562.06
2023-02-19T19:48:29.887Z,102553.94
2023-02-19T19:50:56.996Z,102556.56
2023-02-19T19:53:24.301Z,102552.13
2023-02-19T19:55:50.730Z,102548.53
2023-02-19T19:58:20.860Z,102538.69
2023-02-19T20:00:47.325Z,102540.44
2023-02-19T20:03:14.040Z,102544.88
2023-02-19T20:05:40.582Z,102535.91
2023-02-19T20:08:06.989Z,102541.19
2023-02-19T20:10:33.457Z,102527.81
2023-02-19T20:13:00.198Z,102533.09
2023-02-19T20:15:26.722Z,102525.91
2023-02-19T20:17:53.085Z,102522.28
2023-02-19T20:20:20.026Z,102520.53
2023-02-19T20:22:46.410Z,102533.06
2023-02-19T20:25:12.846Z,102532.97
2023-02-19T20:27:39.280Z,102521.34
2023-02-19T20:30:06.867Z,102530.31
2023-02-19T20:32:33.315Z,102516.91
2023-02-19T20:34:59.784Z,102510.63
2023-02-19T20:37:26.306Z,102507.00
2023-02-19T20:39:52.678Z,102510.53
2023-02-19T20:42:19.078Z,102508.72
2023-02-19T20:44:45.601Z,102509.56
2023-02-19T20:47:12.142Z,102515.69
2023-02-19T20:49:38.567Z,102502.34
2023-02-19T20:52:06.823Z,102496.94
2023-02-19T20:54:34.783Z,102509.28
2023-02-19T20:57:03.641Z,102500.34
2023-02-19T20:59:34.961Z,102498.53
2023-02-19T21:02:06.333Z,102482.47
2023-02-19T21:04:33.477Z,102494.91
2023-02-19T21:06:59.929Z,102493.00
2023-02-19T21:09:26.294Z,102498.22
2023-02-19T21:11:53.089Z,102497.34
2023-02-19T21:14:19.510Z,102500.88
2023-02-19T21:16:45.991Z,102489.31
2023-02-19T21:19:12.501Z,102509.69
2023-02-19T21:21:40.316Z,102490.91
2023-02-19T21:24:07.461Z,102498.19
2023-02-19T21:26:39.277Z,102496.38
2023-02-19T21:29:07.066Z,102497.16
2023-02-19T21:31:48.467Z,102496.31
2023-02-19T21:34:18.423Z,102490.03
2023-02-19T21:36:45.601Z,102503.38
2023-02-19T21:39:14.719Z,102498.03
2023-02-19T21:41:41.205Z,102496.28
2023-02-19T21:44:07.699Z,102495.34
2023-02-19T21:46:34.210Z,102490.84
2023-02-19T21:49:01.378Z,102487.25
2023-02-19T21:51:36.554Z,102482.75
2023-02-19T21:54:03.924Z,102480.78
2023-02-19T21:56:33.919Z,102470.81
2023-02-19T21:59:01.534Z,102474.38
2023-02-19T22:01:32.766Z,102471.72
2023-02-19T22:03:59.582Z,102466.22
2023-02-19T22:06:29.177Z,102468.84
2023-02-19T22:08:56.301Z,102461.69
2023-02-19T22:11:23.006Z,102456.16
2023-02-19T22:13:49.923Z,102449.75
2023-02-19T22:16:17.056Z,102434.38
2023-02-19T22:18:57.792Z,102407.50
2023-02-19T22:21:26.873Z,102413.63
2023-02-19T22:23:54.078Z,102388.59
2023-02-19T22:26:29.056Z,102385.00
2023-02-19T22:28:56.018Z,102376.88
2023-02-19T22:31:24.532Z,102384.78
2023-02-19T22:33:51.507Z,102396.38
2023-02-19T22:36:24.087Z,102424.06
2023-02-19T22:38:50.742Z,102457.09
2023-02-19T22:41:18.079Z,102459.66
2023-02-19T22:43:45.005Z,102461.28
2023-02-19T22:46:16.744Z,102457.72
2023-02-19T22:48:43.456Z,102444.25
2023-02-19T22:51:15.322Z,102440.66
2023-02-19T22:53:50.421Z,102444.06
2023-02-19T22:56:18.514Z,102443.13
2023-02-19T22:58:45.230Z,102455.56
2023-02-19T23:01:13.432Z,102435.09
2023-02-19T23:03:50.135Z,102444.06
2023-02-19T23:06:20.666Z,102401.00
2023-02-19T23:08:47.078Z,102418.66
2023-02-19T23:11:20.031Z,102421.25
2023-02-19T23:13:46.460Z,102407.75
2023-02-19T23:16:13.128Z,102404.13
2023-02-19T23:18:39.773Z,102398.75
2023-02-19T23:21:06.258Z,102405.06
2023-02-19T23:23:32.647Z,102405.91
2023-02-19T23:25:59.060Z,102389.72
2023-02-19T23:28:25.512Z,102387.94
2023-02-19T23:30:52.056Z,102385.16
2023-02-19T23:33:18.547Z,102375.28
2023-02-19T23:35:44.929Z,102371.63
2023-02-19T23:38:11.743Z,102375.13
2023-02-19T23:40:38.163Z,102367.94
2023-02-19T23:43:04.665Z,102356.19
2023-02-19T23:45:31.145Z,102348.97
2023-02-19T23:47:57.532Z,102346.41
2023-02-19T23:50:24.001Z,102347.28
2023-02-19T23:52:50.738Z,102333.06
2023-02-19T23:55:17.314Z,102344.75
2023-02-19T23:57:43.700Z,102341.19
